Time;durP1;ratioP1;P1;durP2;ratioP2;P2;SDS_P1;SDS_P2;PMS_P1;PMS_P2;Temp;Humidity;BMP_temperature;BMP_pressure;BME280_temperature;BME280_humidity;BME280_pressure;Samples;Min_cycle;Max_cycle;Signal;HPM_P1;HPM_P2
2021/03/10 00:01:55;;;;;;;;;;;;;;;4.60;59.44;100037.03;4413038;32;20004;-91
2021/03/10 00:04:20;;;;;;;;;;;;;;;4.44;59.43;100033.63;4411716;32;28447;-91
2021/03/10 00:06:48;;;;;;;;;;;;;;;4.45;59.43;100035.34;4412517;32;20011;-92
2021/03/10 00:09:14;;;;;;;;;;;;;;;4.48;59.43;100037.91;4413502;32;20019;-93
2021/03/10 00:11:39;;;;;;;;;;;;;;;4.40;59.42;100049.97;4413643;32;20106;-92
2021/03/10 00:14:04;;;;;;;;;;;;;;;4.35;59.43;100051.69;4413209;32;21673;-93
2021/03/10 00:16:29;;;;;;;;;;;;;;;4.35;59.43;100046.53;4413144;32;20011;-93
2021/03/10 00:18:55;;;;;;;;;;;;;;;4.26;59.41;100054.31;4413349;32;20008;-93
2021/03/10 00:21:20;;;;;;;;;;;;;;;4.28;59.42;100056.00;4412900;32;26375;-93
2021/03/10 00:23:45;;;;;;;;;;;;;;;4.22;59.42;100050.84;4413595;32;20028;-93
2021/03/10 00:26:14;;;;;;;;;;;;;;;4.18;59.41;100051.72;4413417;32;19984;-93
2021/03/10 00:28:39;;;;;;;;;;;;;;;4.29;59.42;100047.41;4413693;32;19988;-93
2021/03/10 00:31:04;;;;;;;;;;;;;;;4.20;59.42;100050.00;4413125;32;20352;-92
2021/03/10 00:33:29;;;;;;;;;;;;;;;4.21;59.42;100056.00;4413622;32;20535;-93
2021/03/10 00:35:55;;;;;;;;;;;;;;;4.17;59.41;100044.00;4412289;32;25527;-94
2021/03/10 00:38:21;;;;;;;;;;;;;;;4.14;59.41;100046.56;4413274;32;19996;-95
2021/03/10 00:40:46;;;;;;;;;;;;;;;4.18;59.41;100043.97;4414608;32;19993;-94
2021/03/10 00:43:11;;;;;;;;;;;;;;;4.05;59.40;100046.59;4414336;32;20012;-94
2021/03/10 00:45:39;;;;;;;;;;;;;;;4.08;59.41;100046.59;4414116;32;23291;-95
2021/03/10 00:48:05;;;;;;;;;;;;;;;3.89;59.39;100040.59;4414150;32;19972;-95
2021/03/10 00:50:30;;;;;;;;;;;;;;;4.04;59.40;100047.44;4414872;32;20032;-94
2021/03/10 00:52:56;;;;;;;;;;;;;;;3.96;59.40;100037.13;4414746;32;20058;-95
2021/03/10 00:55:21;;;;;;;;;;;;;;;3.79;59.39;100041.47;4416639;32;19980;-94
2021/03/10 00:57:46;;;;;;;;;;;;;;;3.77;59.39;100038.84;4416162;32;19992;-94
2021/03/10 01:00:12;;;;;;;;;;;;;;;3.62;59.38;100041.44;4416047;32;20718;-93
2021/03/10 01:02:37;;;;;;;;;;;;;;;3.54;59.38;100035.41;4415976;32;20003;-94
2021/03/10 01:05:03;;;;;;;;;;;;;;;3.46;59.36;100037.13;4416484;32;19981;-94
2021/03/10 01:07:28;;;;;;;;;;;;;;;3.47;59.38;100031.13;4417015;32;19997;-93
2021/03/10 01:09:53;;;;;;;;;;;;;;;3.44;59.37;100031.97;4416949;32;20020;-94
2021/03/10 01:12:18;;;;;;;;;;;;;;;3.36;59.36;100031.97;4415310;32;25078;-94
2021/03/10 01:14:45;;;;;;;;;;;;;;;3.49;59.37;100025.12;4415399;32;29230;-94
2021/03/10 01:17:13;;;;;;;;;;;;;;;3.39;59.37;100031.13;4416077;32;20612;-95
2021/03/10 01:19:40;;;;;;;;;;;;;;;3.47;59.38;100018.25;4417919;32;20004;-96
2021/03/10 01:22:39;;;;;;;;;;;;;;;3.31;59.37;100025.97;4435219;32;19977;-96
2021/03/10 01:25:55;;;;;;;;;;;;;;;3.32;59.37;100017.41;4394926;32;19998;-96
2021/03/10 01:28:41;;;;;;;;;;;;;;;3.11;59.35;100022.50;4392526;32;19997;-92
2021/03/10 01:31:06;;;;;;;;;;;;;;;2.94;59.34;100029.28;4412487;32;20095;-93
2021/03/10 01:33:31;;;;;;;;;;;;;;;3.02;59.35;100025.88;4411860;32;19984;-94
2021/03/10 01:35:56;;;;;;;;;;;;;;;2.91;59.33;100019.87;4403216;32;30163;-92
2021/03/10 01:38:22;;;;;;;;;;;;;;;3.03;59.35;100021.59;4425180;32;21751;-92
2021/03/10 01:40:47;;;;;;;;;;;;;;;2.97;59.34;100019.87;4412255;32;20239;-88
2021/03/10 01:43:12;;;;;;;;;;;;;;;2.99;59.34;100020.72;4414244;32;20004;-91
2021/03/10 01:45:37;;;;;;;;;;;;;;;3.03;59.35;100013.87;4412788;32;24174;-91
2021/03/10 01:48:05;;;;;;;;;;;;;;;2.90;59.34;100019.84;4413836;32;19987;-93
2021/03/10 01:50:30;;;;;;;;;;;;;;;2.96;59.35;100025.00;4413474;32;20014;-90
2021/03/10 01:52:56;;;;;;;;;;;;;;;2.84;59.33;100020.72;4424275;32;22773;-90
2021/03/10 01:55:21;;;;;;;;;;;;;;;2.94;59.34;100026.72;4420352;32;20257;-90
2021/03/10 01:57:46;;;;;;;;;;;;;;;2.95;59.35;100028.44;4411735;32;19999;-90
2021/03/10 02:00:12;;;;;;;;;;;;;;;2.95;59.35;100024.16;4412009;32;20041;-93
2021/03/10 02:02:37;;;;;;;;;;;;;;;2.85;59.34;100021.56;4425550;32;20004;-92
2021/03/10 02:05:02;;;;;;;;;;;;;;;3.01;59.34;100016.44;4411603;32;19981;-89
2021/03/10 02:07:32;;;;;;;;;;;;;;;2.98;59.34;100016.44;4411608;32;19996;-88
2021/03/10 02:10:03;;;;;;;;;;;;;;;3.05;59.35;100019.87;4411276;32;20000;-90
2021/03/10 02:12:46;;;;;;;;;;;;;;;3.04;59.35;100019.03;4425618;32;20001;-92
2021/03/10 02:15:12;;;;;;;;;;;;;;;3.11;59.35;100022.50;4438998;32;19985;-91
2021/03/10 02:17:38;;;;;;;;;;;;;;;2.99;59.34;100017.31;4407843;32;20235;-91
2021/03/10 02:20:19;;;;;;;;;;;;;;;2.96;59.34;100022.44;4412528;32;20341;-91
2021/03/10 02:22:50;;;;;;;;;;;;;;;3.17;59.36;100021.66;4426263;32;19997;-91
2021/03/10 02:25:34;;;;;;;;;;;;;;;3.18;59.36;100013.94;4413082;32;19980;-91
2021/03/10 02:27:59;;;;;;;;;;;;;;;3.12;59.35;100013.94;4439477;32;19973;-91
2021/03/10 02:30:26;;;;;;;;;;;;;;;2.92;59.33;100010.44;4412167;32;25762;-91
2021/03/10 02:32:54;;;;;;;;;;;;;;;2.88;59.34;100007.00;4411958;32;19985;-89
2021/03/10 02:35:20;;;;;;;;;;;;;;;2.81;59.34;100019.81;4426104;32;20025;-91
2021/03/10 02:37:49;;;;;;;;;;;;;;;2.78;59.33;100011.22;4411412;32;20020;-90
2021/03/10 02:40:15;;;;;;;;;;;;;;;2.72;59.33;100008.66;4411760;32;19981;-90
2021/03/10 02:42:43;;;;;;;;;;;;;;;2.79;59.33;100009.53;4424772;32;20022;-91
2021/03/10 02:45:08;;;;;;;;;;;;;;;2.76;59.33;100010.37;4427581;32;19995;-94
2021/03/10 02:47:33;;;;;;;;;;;;;;;2.71;59.32;100012.06;4416950;32;20279;-96
2021/03/10 02:49:59;;;;;;;;;;;;;;;2.78;59.33;100012.94;4416521;32;20056;-93
2021/03/10 02:52:27;;;;;;;;;;;;;;;2.89;59.34;100007.84;4415672;32;20250;-95
2021/03/10 02:54:52;;;;;;;;;;;;;;;2.66;59.33;100011.19;4415462;32;20042;-93
2021/03/10 02:57:18;;;;;;;;;;;;;;;2.69;59.33;100013.78;4415401;32;19973;-94
2021/03/10 02:59:45;;;;;;;;;;;;;;;2.69;59.33;100026.63;4416601;32;19989;-94
2021/03/10 03:02:10;;;;;;;;;;;;;;;2.62;59.32;100017.19;4429379;32;20046;-95
2021/03/10 03:04:35;;;;;;;;;;;;;;;2.63;59.32;100016.34;4415690;32;20068;-90
2021/03/10 03:07:01;;;;;;;;;;;;;;;2.72;59.33;100008.66;4413420;32;19980;-92
2021/03/10 03:09:27;;;;;;;;;;;;;;;2.70;59.32;100017.22;4423996;32;20645;-91
2021/03/10 03:11:52;;;;;;;;;;;;;;;2.61;59.32;100020.63;4397915;32;29896;-93
2021/03/10 03:14:18;;;;;;;;;;;;;;;2.65;59.33;100012.06;4397925;32;19977;-92
2021/03/10 03:16:46;;;;;;;;;;;;;;;2.50;59.32;100023.97;4397862;32;20294;-88
2021/03/10 03:19:11;;;;;;;;;;;;;;;2.47;59.31;100027.37;4398721;32;20064;-92
2021/03/10 03:21:36;;;;;;;;;;;;;;;2.57;59.32;100030.84;4410741;32;19997;-95
2021/03/10 03:24:03;;;;;;;;;;;;;;;2.32;59.31;100032.44;4444336;32;19996;-96
2021/03/10 03:35:46;;;;;;;;;;;;;;;2.44;59.32;100025.66;4422397;32;19946;-96
2021/03/10 03:38:13;;;;;;;;;;;;;;;2.42;59.31;100029.06;4407740;32;19969;-96
2021/03/10 03:40:38;;;;;;;;;;;;;;;2.50;59.32;100035.09;4417683;32;20306;-96
2021/03/10 03:43:06;;;;;;;;;;;;;;;2.51;59.32;100030.81;4417116;32;20031;-96
2021/03/10 03:45:31;;;;;;;;;;;;;;;2.51;59.32;100039.38;4416455;32;20059;-96
2021/03/10 03:47:57;;;;;;;;;;;;;;;2.55;59.31;100037.69;4415707;32;19976;-95
2021/03/10 03:50:23;;;;;;;;;;;;;;;2.58;59.33;100030.84;4430161;32;19992;-96
2021/03/10 03:52:48;;;;;;;;;;;;;;;2.53;59.32;100026.53;4416249;32;19993;-96
2021/03/10 03:55:13;;;;;;;;;;;;;;;2.62;59.32;100032.59;4416515;32;19981;-96
2021/03/10 03:57:39;;;;;;;;;;;;;;;2.61;59.32;100038.59;4415866;32;19969;-96
2021/03/10 04:00:05;;;;;;;;;;;;;;;2.50;59.31;100029.09;4416145;32;19985;-95
2021/03/10 04:02:33;;;;;;;;;;;;;;;2.53;59.31;100031.69;4428618;32;19997;-96
2021/03/10 04:04:58;;;;;;;;;;;;;;;2.53;59.32;100040.25;4415971;32;19977;-94
2021/03/10 04:07:23;;;;;;;;;;;;;;;2.70;59.33;100036.06;4416076;32;22282;-95
2021/03/10 04:09:48;;;;;;;;;;;;;;;2.70;59.33;100037.78;4414590;32;20020;-93
2021/03/10 04:12:14;;;;;;;;;;;;;;;2.57;59.31;100034.28;4414000;32;25816;-93
2021/03/10 04:14:42;;;;;;;;;;;;;;;2.46;59.31;100036.81;4414437;32;19969;-94
2021/03/10 04:17:07;;;;;;;;;;;;;;;2.55;59.31;100041.13;4414331;32;19997;-93
2021/03/10 04:19:32;;;;;;;;;;;;;;;2.55;59.32;100038.53;4413812;32;30481;-94
2021/03/10 04:21:57;;;;;;;;;;;;;;;2.52;59.31;100043.69;4413957;32;20038;-94
2021/03/10 04:24:23;;;;;;;;;;;;;;;2.66;59.33;100048.91;4414453;32;19995;-95
2021/03/10 04:26:48;;;;;;;;;;;;;;;2.57;59.32;100044.56;4414546;32;19985;-94
2021/03/10 04:29:13;;;;;;;;;;;;;;;2.53;59.32;100044.53;4416123;32;20020;-94
2021/03/10 04:31:38;;;;;;;;;;;;;;;2.44;59.31;100045.34;4416924;32;20015;-93
2021/03/10 04:34:04;;;;;;;;;;;;;;;2.37;59.31;100044.47;4416493;32;29485;-94
2021/03/10 04:36:32;;;;;;;;;;;;;;;2.45;59.32;100045.38;4415902;32;23178;-93
2021/03/10 04:38:57;;;;;;;;;;;;;;;2.50;59.31;100041.94;4415336;32;19988;-94
2021/03/10 04:41:22;;;;;;;;;;;;;;;2.27;59.30;100044.37;4415919;32;20000;-94
2021/03/10 04:43:48;;;;;;;;;;;;;;;2.55;59.31;100035.97;4416343;32;23035;-94
2021/03/10 04:46:13;;;;;;;;;;;;;;;2.11;59.29;100043.41;4415930;32;20030;-94
2021/03/10 04:48:38;;;;;;;;;;;;;;;1.86;59.28;100039.81;4416851;32;20027;-95
2021/03/10 04:51:06;;;;;;;;;;;;;;;1.89;59.27;100041.53;4417213;32;20011;-94
2021/03/10 04:53:34;;;;;;;;;;;;;;;1.98;59.28;100041.63;4428524;32;20003;-92
2021/03/10 04:55:59;;;;;;;;;;;;;;;1.96;59.28;100033.91;4414920;32;19984;-94
2021/03/10 04:58:25;;;;;;;;;;;;;;;1.93;59.28;100031.34;4416006;32;20020;-94
2021/03/10 05:00:50;;;;;;;;;;;;;;;1.83;59.28;100035.53;4416379;32;20011;-94
2021/03/10 05:03:18;;;;;;;;;;;;;;;1.89;59.27;100029.56;4415211;32;20009;-93
2021/03/10 05:05:44;;;;;;;;;;;;;;;1.93;59.28;100036.47;4412819;32;20052;-90
2021/03/10 05:08:12;;;;;;;;;;;;;;;1.83;59.28;100038.09;4412195;32;20302;-89
2021/03/10 05:10:37;;;;;;;;;;;;;;;1.69;59.27;100041.41;4412404;32;20004;-88
2021/03/10 05:13:02;;;;;;;;;;;;;;;1.86;59.28;100047.53;4412055;32;20030;-89
2021/03/10 05:15:28;;;;;;;;;;;;;;;1.98;59.28;100044.19;4411470;32;23331;-88
2021/03/10 05:17:53;;;;;;;;;;;;;;;1.75;59.27;100054.28;4424771;32;20000;-88
2021/03/10 05:20:21;;;;;;;;;;;;;;;1.74;59.27;100052.56;4411937;32;20098;-90
2021/03/10 05:22:46;;;;;;;;;;;;;;;1.54;59.26;100049.81;4412322;32;19973;-89
2021/03/10 05:25:11;;;;;;;;;;;;;;;1.68;59.27;100061.09;4412707;32;20011;-90
2021/03/10 05:27:36;;;;;;;;;;;;;;;1.76;59.26;100061.13;4425466;32;19980;-90
2021/03/10 05:30:03;;;;;;;;;;;;;;;1.52;59.26;100062.62;4413058;32;20034;-90
2021/03/10 05:32:28;;;;;;;;;;;;;;;1.54;59.25;100060.94;4437445;32;19981;-87
2021/03/10 05:34:53;;;;;;;;;;;;;;;1.41;59.26;100071.06;4411194;32;28790;-87
2021/03/10 05:37:19;;;;;;;;;;;;;;;1.50;59.26;100066.91;4425839;32;20309;-91
2021/03/10 05:39:44;;;;;;;;;;;;;;;1.23;59.24;100064.06;4410675;32;19997;-91
2021/03/10 05:42:09;;;;;;;;;;;;;;;1.37;59.25;100061.63;4426241;32;20000;-92
2021/03/10 05:44:35;;;;;;;;;;;;;;;1.40;59.25;100071.91;4414026;32;19973;-92
2021/03/10 05:47:01;;;;;;;;;;;;;;;1.35;59.25;100069.28;4413142;32;28040;-92
2021/03/10 05:49:26;;;;;;;;;;;;;;;1.50;59.26;100076.28;4414155;32;20004;-93
2021/03/10 05:51:51;;;;;;;;;;;;;;;1.47;59.25;100069.44;4413424;32;20000;-93
2021/03/10 05:54:17;;;;;;;;;;;;;;;1.56;59.26;100068.66;4426194;32;20250;-91
2021/03/10 05:56:42;;;;;;;;;;;;;;;1.52;59.26;100074.59;4413028;32;20378;-91
2021/03/10 05:59:08;;;;;;;;;;;;;;;1.57;59.26;100061.81;4413266;32;19989;-90
2021/03/10 06:01:34;;;;;;;;;;;;;;;1.58;59.26;100066.09;4412474;32;19997;-90
2021/03/10 06:04:00;;;;;;;;;;;;;;;1.47;59.25;100066.88;4412746;32;19989;-91
2021/03/10 06:06:25;;;;;;;;;;;;;;;1.48;59.25;100070.28;4413224;32;20049;-92
2021/03/10 06:08:50;;;;;;;;;;;;;;;1.92;59.29;100064.69;4413348;32;20354;-91
2021/03/10 06:11:25;;;;;;;;;;;;;;;2.04;59.28;100065.62;4413795;32;20023;-92
2021/03/10 06:13:50;;;;;;;;;;;;;;;1.99;59.29;100069.03;4413816;32;19999;-91
2021/03/10 06:16:19;;;;;;;;;;;;;;;2.12;59.29;100063.97;4413458;32;20040;-92
2021/03/10 06:18:47;;;;;;;;;;;;;;;2.14;59.29;100072.56;4413537;32;20330;-91
2021/03/10 06:21:13;;;;;;;;;;;;;;;2.23;59.30;100071.75;4413704;32;19977;-92
2021/03/10 06:23:57;;;;;;;;;;;;;;;2.49;59.31;100077.06;4413158;32;20025;-91
2021/03/10 06:26:26;;;;;;;;;;;;;;;2.67;59.32;100073.75;4425760;32;20482;-90
2021/03/10 06:28:54;;;;;;;;;;;;;;;2.85;59.33;100075.56;4413360;32;19993;-90
2021/03/10 06:31:19;;;;;;;;;;;;;;;3.03;59.35;100070.44;4413600;32;19977;-90
2021/03/10 06:33:44;;;;;;;;;;;;;;;2.71;59.32;100081.47;4425231;32;19995;-88
2021/03/10 06:36:22;;;;;;;;;;;;;;;2.87;59.33;100078.97;4411814;32;19997;-90
2021/03/10 06:38:53;;;;;;;;;;;;;;;3.05;59.35;100073.88;4412314;32;19984;-92
2021/03/10 06:41:28;;;;;;;;;;;;;;;3.05;59.35;100082.47;4413284;32;19963;-90
2021/03/10 06:43:54;;;;;;;;;;;;;;;3.08;59.35;100086.78;4412622;32;19977;-90
2021/03/10 06:46:19;;;;;;;;;;;;;;;3.18;59.35;100092.81;4425500;32;20000;-91
2021/03/10 06:49:11;;;;;;;;;;;;;;;3.21;59.36;100088.53;4413865;32;20239;-91
2021/03/10 06:51:36;;;;;;;;;;;;;;;3.23;59.35;100084.25;4436734;32;20398;-92
2021/03/10 06:54:02;;;;;;;;;;;;;;;3.03;59.35;100088.47;4412710;32;20000;-91
2021/03/10 06:56:28;;;;;;;;;;;;;;;3.15;59.35;100093.66;4413238;32;19992;-92
2021/03/10 06:58:57;;;;;;;;;;;;;;;3.20;59.36;100098.81;4413304;32;20039;-92
2021/03/10 07:01:23;;;;;;;;;;;;;;;3.14;59.35;100094.50;4425784;32;20341;-92
2021/03/10 07:03:48;;;;;;;;;;;;;;;3.23;59.35;100097.09;4412897;32;20672;-91
2021/03/10 07:06:14;;;;;;;;;;;;;;;3.26;59.36;100109.97;4412388;32;29786;-91
2021/03/10 07:08:39;;;;;;;;;;;;;;;3.35;59.36;100092.00;4425565;32;19989;-91
2021/03/10 07:11:05;;;;;;;;;;;;;;;3.37;59.36;100094.59;4412768;32;20022;-92
2021/03/10 07:13:30;;;;;;;;;;;;;;;3.52;59.37;100083.44;4412808;32;19984;-91
2021/03/10 07:15:55;;;;;;;;;;;;;;;3.49;59.37;100089.44;4412494;32;23212;-90
2021/03/10 07:18:20;;;;;;;;;;;;;;;3.58;59.38;100086.91;4412493;32;20003;-91
2021/03/10 07:20:46;;;;;;;;;;;;;;;3.82;59.38;100091.22;4412352;32;20042;-91
2021/03/10 07:23:11;;;;;;;;;;;;;;;3.99;59.41;100089.50;4411630;32;20269;-90
2021/03/10 07:25:41;;;;;;;;;;;;;;;4.11;59.41;100095.53;4412419;32;20015;-92
2021/03/10 07:28:14;;;;;;;;;;;;;;;4.10;59.41;100093.81;4412200;32;20776;-90
2021/03/10 07:30:40;;;;;;;;;;;;;;;4.37;59.43;100092.91;4425039;32;19980;-90
2021/03/10 07:33:06;;;;;;;;;;;;;;;4.46;59.43;100087.75;4412332;32;20037;-89
2021/03/10 07:35:45;;;;;;;;;;;;;;;4.72;59.44;100085.94;4416928;32;92264;-91
2021/03/10 07:38:10;;;;;;;;;;;;;;;4.99;59.45;100081.59;4410254;32;20032;-87
2021/03/10 07:40:35;;;;;;;;;;;;;;;5.05;59.46;100081.56;4437033;32;20008;-89
2021/03/10 07:43:01;;;;;;;;;;;;;;;4.95;59.46;100085.88;4423146;32;25308;-91
2021/03/10 07:45:40;;;;;;;;;;;;;;;5.11;59.46;100084.97;4410295;32;29538;-90
2021/03/10 07:48:06;;;;;;;;;;;;;;;5.42;59.48;100087.38;4410707;32;20802;-90
2021/03/10 07:50:57;;;;;;;;;;;;;;;5.39;59.49;100087.41;4423479;32;19984;-91
2021/03/10 07:53:35;;;;;;;;;;;;;;;5.34;59.47;100086.56;4435309;32;20002;-89
2021/03/10 07:56:00;;;;;;;;;;;;;;;5.57;59.49;100087.28;4410745;32;20048;-89
2021/03/10 07:58:26;;;;;;;;;;;;;;;5.79;59.50;100081.13;4410711;32;20020;-90
2021/03/10 08:00:55;;;;;;;;;;;;;;;5.98;59.51;100088.75;4410682;32;19995;-90
2021/03/10 08:03:27;;;;;;;;;;;;;;;5.98;59.51;100086.19;4409165;32;19996;-88
2021/03/10 08:05:58;;;;;;;;;;;;;;;6.06;59.52;100086.97;4424123;32;20069;-90
2021/03/10 08:08:23;;;;;;;;;;;;;;;6.19;59.52;100088.59;4411050;32;20380;-91
2021/03/10 08:10:48;;;;;;;;;;;;;;;6.28;59.54;100085.91;4410402;32;25642;-93
2021/03/10 08:13:17;;;;;;;;;;;;;;;6.35;59.55;100082.38;4411026;32;20003;-89
2021/03/10 08:15:42;;;;;;;;;;;;;;;6.59;59.55;100081.28;4410899;32;20031;-90
2021/03/10 08:18:10;;;;;;;;;;;;;;;6.67;59.56;100076.91;4410194;32;20000;-90
2021/03/10 08:20:38;;;;;;;;;;;;;;;7.11;59.58;100067.75;4411051;32;19983;-90
2021/03/10 08:23:03;;;;;;;;;;;;;;;7.24;59.58;100066.72;4410644;32;20071;-90
2021/03/10 08:25:28;;;;;;;;;;;;;;;7.38;59.59;100057.03;4410303;32;20082;-90
2021/03/10 08:27:54;;;;;;;;;;;;;;;7.63;59.61;100059.25;4410717;32;20338;-90
2021/03/10 08:30:23;;;;;;;;;;;;;;;8.03;59.63;100062.06;4410160;32;27237;-91
2021/03/10 08:32:48;;;;;;;;;;;;;;;8.17;59.64;100048.88;4423129;32;20038;-90
2021/03/10 08:35:20;;;;;;;;;;;;;;;8.36;59.64;100054.63;4410341;32;21844;-90
2021/03/10 08:38:01;;;;;;;;;;;;;;;8.78;59.67;100045.19;4410570;32;20055;-90
2021/03/10 08:40:27;;;;;;;;;;;;;;;8.93;59.68;100043.09;4407660;32;19973;-89
2021/03/10 08:42:52;;;;;;;;;;;;;;;8.92;59.68;100053.53;4420922;32;20075;-89
2021/03/10 08:45:36;;;;;;;;;;;;;;;9.19;59.70;100047.75;4408334;32;19993;-91
2021/03/10 08:48:05;;;;;;;;;;;;;;;9.31;59.70;100044.03;4408092;32;19996;-93
2021/03/10 08:50:43;;;;;;;;;;;;;;;9.53;59.71;100042.66;4407982;32;19969;-89
2021/03/10 08:53:09;;;;;;;;;;;;;;;9.67;59.72;100044.06;4420749;32;19980;-91
2021/03/10 08:55:34;;;;;;;;;;;;;;;9.88;59.74;100040.97;4407901;32;20035;-90
2021/03/10 08:58:07;;;;;;;;;;;;;;;10.05;59.75;100032.75;4407365;32;25940;-90
2021/03/10 09:00:33;;;;;;;;;;;;;;;10.25;59.76;100032.28;4419935;32;19984;-89
2021/03/10 09:03:07;;;;;;;;;;;;;;;10.38;59.76;100028.44;4394856;32;20498;-89
2021/03/10 09:05:32;;;;;;;;;;;;;;;10.49;59.77;100022.97;4407814;32;19994;-90
2021/03/10 09:07:57;;;;;;;;;;;;;;;10.53;59.77;100024.59;4408271;32;20007;-92
2021/03/10 09:10:28;;;;;;;;;;;;;;;10.48;59.77;100024.72;4408496;32;19989;-92
2021/03/10 09:12:56;;;;;;;;;;;;;;;10.63;59.78;100021.66;4395742;32;19989;-91
2021/03/10 09:15:24;;;;;;;;;;;;;;;10.48;59.77;100024.72;4409568;32;19989;-90
2021/03/10 09:17:49;;;;;;;;;;;;;;;10.28;59.75;100027.00;4422308;32;20285;-89
2021/03/10 09:20:22;;;;;;;;;;;;;;;10.34;59.76;100025.06;4409434;32;20080;-89
2021/03/10 09:22:47;;;;;;;;;;;;;;;10.23;59.75;100026.25;4409240;32;20342;-90
2021/03/10 09:25:17;;;;;;;;;;;;;;;10.01;59.73;100029.38;4422927;32;19977;-89
2021/03/10 09:27:42;;;;;;;;;;;;;;;10.39;59.76;100020.59;4410245;32;20001;-90
2021/03/10 09:30:08;;;;;;;;;;;;;;;10.75;59.78;100020.50;4410126;32;19965;-90
2021/03/10 09:32:37;;;;;;;;;;;;;;;10.66;59.78;100019.00;4409212;32;19984;-91
2021/03/10 09:35:09;;;;;;;;;;;;;;;10.68;59.79;100022.41;4409559;32;19997;-90
2021/03/10 09:37:34;;;;;;;;;;;;;;;10.29;59.76;100028.69;4409489;32;19993;-88
2021/03/10 09:40:02;;;;;;;;;;;;;;;10.15;59.75;100027.25;4426655;32;26518;-90
2021/03/10 09:42:28;;;;;;;;;;;;;;;9.99;59.75;100028.56;4411971;32;20368;-90
2021/03/10 09:44:53;;;;;;;;;;;;;;;9.97;59.74;100027.75;4424852;32;19997;-90
2021/03/10 09:47:21;;;;;;;;;;;;;;;9.97;59.74;100025.16;4411985;32;20005;-90
2021/03/10 09:49:49;;;;;;;;;;;;;;;10.02;59.74;100023.28;4424899;32;19977;-90
2021/03/10 09:52:14;;;;;;;;;;;;;;;10.01;59.75;100026.78;4424533;32;20049;-90
2021/03/10 09:54:52;;;;;;;;;;;;;;;10.11;59.75;100017.84;4424766;32;20361;-91
2021/03/10 09:57:21;;;;;;;;;;;;;;;9.92;59.74;100029.59;4424885;32;20080;-90
2021/03/10 09:59:47;;;;;;;;;;;;;;;9.78;59.72;100035.16;4424812;32;20460;-91
2021/03/10 10:02:14;;;;;;;;;;;;;;;9.90;59.74;100035.72;4424282;32;19976;-90
2021/03/10 10:04:42;;;;;;;;;;;;;;;10.15;59.75;100029.84;4412197;32;20042;-91
2021/03/10 10:07:09;;;;;;;;;;;;;;;10.11;59.75;100027.37;4425072;32;20054;-90
2021/03/10 10:09:37;;;;;;;;;;;;;;;10.25;59.76;100027.06;4412010;32;19976;-89
2021/03/10 10:12:05;;;;;;;;;;;;;;;10.36;59.76;100025.03;4412559;32;20000;-89
2021/03/10 10:14:30;;;;;;;;;;;;;;;10.46;59.76;100021.31;4424732;32;20008;-91
2021/03/10 10:16:58;;;;;;;;;;;;;;;10.28;59.76;100034.78;4411832;32;20011;-90
2021/03/10 10:19:23;;;;;;;;;;;;;;;10.13;59.75;100028.19;4425189;32;20673;-91
2021/03/10 10:21:50;;;;;;;;;;;;;;;9.81;59.74;100035.06;4425257;32;19977;-91
2021/03/10 10:24:18;;;;;;;;;;;;;;;9.99;59.74;100027.72;4412697;32;20003;-91
2021/03/10 10:26:48;;;;;;;;;;;;;;;10.04;59.75;100025.84;4411089;32;20055;-91
2021/03/10 10:29:13;;;;;;;;;;;;;;;10.08;59.74;100030.91;4424900;32;19991;-90
2021/03/10 10:31:47;;;;;;;;;;;;;;;10.12;59.75;100021.28;4403810;32;20028;-91
2021/03/10 10:34:12;;;;;;;;;;;;;;;9.85;59.73;100025.44;4410606;32;20011;-89
2021/03/10 10:36:38;;;;;;;;;;;;;;;10.11;59.75;100023.03;4410944;32;19992;-91
2021/03/10 10:39:06;;;;;;;;;;;;;;;10.56;59.78;100017.53;4424446;32;20011;-89
2021/03/10 10:41:31;;;;;;;;;;;;;;;10.85;59.79;100013.25;4411571;32;19977;-91
2021/03/10 10:43:56;;;;;;;;;;;;;;;10.83;59.79;100013.31;4410828;32;22880;-91
2021/03/10 10:46:21;;;;;;;;;;;;;;;10.70;59.79;100017.16;4423704;32;20012;-88
2021/03/10 10:48:50;;;;;;;;;;;;;;;10.72;59.78;100005.81;4410745;32;20255;-91
2021/03/10 10:51:16;;;;;;;;;;;;;;;10.84;59.79;100006.34;4411316;32;20012;-88
2021/03/10 10:53:45;;;;;;;;;;;;;;;11.08;59.81;100003.88;4408147;32;20329;-90
2021/03/10 10:56:10;;;;;;;;;;;;;;;11.23;59.81;99997.34;4408837;32;20652;-90
2021/03/10 10:58:38;;;;;;;;;;;;;;;11.57;59.83;99994.53;4420515;32;20075;-89
2021/03/10 11:01:03;;;;;;;;;;;;;;;11.66;59.83;99986.41;4423717;32;20409;-89
2021/03/10 11:03:31;;;;;;;;;;;;;;;11.75;59.84;99992.22;4410647;32;24180;-88
2021/03/10 11:06:06;;;;;;;;;;;;;;;11.85;59.85;99981.50;4411117;32;20350;-90
2021/03/10 11:08:31;;;;;;;;;;;;;;;12.06;59.86;99973.81;4424938;32;20330;-90
2021/03/10 11:10:56;;;;;;;;;;;;;;;12.09;59.86;99971.13;4408610;32;25873;-91
2021/03/10 11:13:24;;;;;;;;;;;;;;;12.09;59.86;99958.94;4411300;32;19989;-90
2021/03/10 11:15:52;;;;;;;;;;;;;;;12.12;59.85;99958.81;4420329;32;20045;-89
2021/03/10 11:18:17;;;;;;;;;;;;;;;12.16;59.86;99957.81;4407447;32;20376;-89
2021/03/10 11:20:43;;;;;;;;;;;;;;;12.10;59.86;99955.41;4429269;32;20363;-89
2021/03/10 11:23:08;;;;;;;;;;;;;;;11.50;59.82;99963.50;4422268;32;20008;-89
2021/03/10 11:25:33;;;;;;;;;;;;;;;10.99;59.79;99964.22;4402340;32;20044;-88
2021/03/10 11:27:58;;;;;;;;;;;;;;;10.87;59.79;99959.38;4422445;32;19985;-89
2021/03/10 11:30:26;;;;;;;;;;;;;;;10.91;59.79;99959.25;4402425;32;19985;-87
2021/03/10 11:32:52;;;;;;;;;;;;;;;10.85;59.79;99959.41;4409712;32;19981;-88
2021/03/10 11:35:17;;;;;;;;;;;;;;;10.79;59.79;99964.81;4402430;32;20023;-88
2021/03/10 11:37:42;;;;;;;;;;;;;;;10.82;59.79;99956.91;4422241;32;19973;-89
2021/03/10 11:40:08;;;;;;;;;;;;;;;10.86;59.79;99947.25;4404514;32;20023;-88
2021/03/10 11:42:33;;;;;;;;;;;;;;;10.95;59.79;99945.25;4417361;32;20491;-89
2021/03/10 11:44:58;;;;;;;;;;;;;;;11.12;59.81;99946.44;4409408;32;20004;-90
2021/03/10 11:47:28;;;;;;;;;;;;;;;11.22;59.82;99940.94;4402572;32;20004;-89
2021/03/10 11:49:59;;;;;;;;;;;;;;;10.96;59.80;99946.09;4423494;32;20003;-90
2021/03/10 11:52:24;;;;;;;;;;;;;;;10.85;59.79;99945.53;4416415;32;19977;-88
2021/03/10 11:54:50;;;;;;;;;;;;;;;10.62;59.78;99941.00;4419258;32;20007;-90
2021/03/10 11:57:15;;;;;;;;;;;;;;;10.42;59.77;99939.00;4415905;32;19995;-91
2021/03/10 11:59:40;;;;;;;;;;;;;;;10.39;59.77;99934.72;4409479;32;20324;-89
2021/03/10 12:02:05;;;;;;;;;;;;;;;10.26;59.76;99932.53;4415128;32;20004;-88
2021/03/10 12:04:31;;;;;;;;;;;;;;;10.20;59.76;99932.66;4410165;32;19997;-89
2021/03/10 12:06:56;;;;;;;;;;;;;;;10.33;59.76;99924.50;4402534;32;20035;-91
2021/03/10 12:09:21;;;;;;;;;;;;;;;10.24;59.76;99922.16;4423552;32;20006;-90
2021/03/10 12:11:47;;;;;;;;;;;;;;;10.50;59.78;99916.22;4423353;32;20005;-89
2021/03/10 12:14:12;;;;;;;;;;;;;;;10.54;59.78;99915.22;4403853;32;19992;-90
2021/03/10 12:16:37;;;;;;;;;;;;;;;10.73;59.79;99908.56;4410911;32;19987;-89
2021/03/10 12:19:02;;;;;;;;;;;;;;;10.69;59.79;99917.37;4404942;32;20036;-91
2021/03/10 12:21:31;;;;;;;;;;;;;;;10.70;59.79;99913.88;4420791;32;19993;-90
2021/03/10 12:23:56;;;;;;;;;;;;;;;10.56;59.78;99910.81;4421116;32;20003;-91
2021/03/10 12:26:21;;;;;;;;;;;;;;;10.59;59.77;99905.53;4404693;32;19993;-90
2021/03/10 12:28:47;;;;;;;;;;;;;;;10.34;59.76;99914.94;4422849;32;20034;-89
2021/03/10 12:31:15;;;;;;;;;;;;;;;10.20;59.76;99914.47;4402053;32;20053;-90
2021/03/10 12:33:40;;;;;;;;;;;;;;;10.15;59.75;99897.19;4422526;32;20084;-90
2021/03/10 12:36:05;;;;;;;;;;;;;;;10.49;59.77;99893.69;4414782;32;20817;-89
2021/03/10 12:38:34;;;;;;;;;;;;;;;10.69;59.79;99890.50;4409293;32;19976;-89
2021/03/10 12:40:59;;;;;;;;;;;;;;;10.86;59.79;99895.16;4414715;32;20049;-90
2021/03/10 12:43:24;;;;;;;;;;;;;;;10.58;59.78;99903.81;4409199;32;20012;-89
2021/03/10 12:45:49;;;;;;;;;;;;;;;10.49;59.78;99888.47;4402209;32;19991;-89
2021/03/10 12:48:18;;;;;;;;;;;;;;;10.42;59.77;99899.97;4409242;32;19996;-88
2021/03/10 12:50:46;;;;;;;;;;;;;;;10.16;59.76;99893.69;4403754;32;19989;-89
2021/03/10 12:53:15;;;;;;;;;;;;;;;10.07;59.74;99901.78;4410945;32;20060;-88
2021/03/10 12:55:40;;;;;;;;;;;;;;;9.83;59.74;99897.22;4416657;32;19995;-90